Airport View

Enter AWOS ICAO identifier for current METAR.

ex. KFNL

KPSO 192320Z AUTO 21013G18KT 10SM CLR 12/M13 A2998 RMK AO2 T01231131

19 Oct 2019 23:20

Frequency: 127.175

Phone: 970-731-0365

Other Area AWOS: KCPW - KDRO - KRCV - KTEX

TAF KALS 191744Z 1918/2018 19007KT P6SM SKC FM192100 24018G30KT P6SM SKC FM200100 19008KT P6SM SCT180 FM201500 27015G30KT P6SM FEW100